createdAt,value
2019-06-15T00:00:15.751Z,23.00
2019-06-15T00:02:45.008Z,23.10
2019-06-15T00:05:15.047Z,23.00
2019-06-15T00:07:43.804Z,23.10
2019-06-15T00:10:12.771Z,23.00
2019-06-15T00:12:42.013Z,23.00
2019-06-15T00:15:11.438Z,23.00
2019-06-15T00:17:40.219Z,23.10
2019-06-15T00:20:09.924Z,23.00
2019-06-15T00:22:39.376Z,23.10
2019-06-15T00:25:08.636Z,23.10
2019-06-15T00:27:37.739Z,23.10
2019-06-15T00:30:06.996Z,23.10
2019-06-15T00:32:36.120Z,23.00
2019-06-15T00:35:05.909Z,23.00
2019-06-15T00:37:34.793Z,23.10
2019-06-15T00:40:03.957Z,23.10
2019-06-15T00:42:32.859Z,23.00
2019-06-15T00:45:01.972Z,23.00
2019-06-15T00:47:31.037Z,23.10
2019-06-15T00:49:59.853Z,23.00
2019-06-15T00:52:28.749Z,23.00
2019-06-15T00:54:57.678Z,23.00
2019-06-15T00:57:26.567Z,23.00
2019-06-15T00:59:55.540Z,23.00
2019-06-15T01:02:24.534Z,23.00
2019-06-15T01:04:53.389Z,23.00
2019-06-15T01:07:22.233Z,22.90
2019-06-15T01:09:51.171Z,22.90
2019-06-15T01:12:20.183Z,22.90
2019-06-15T01:14:48.975Z,22.90
2019-06-15T01:17:17.848Z,22.90
2019-06-15T01:19:47.035Z,22.90
2019-06-15T01:22:16.022Z,22.90
2019-06-15T01:24:44.848Z,22.90
2019-06-15T01:27:13.617Z,22.90
2019-06-15T01:29:42.464Z,22.90
2019-06-15T01:32:11.626Z,22.90
2019-06-15T01:34:40.615Z,22.90
2019-06-15T01:37:10.091Z,23.00
2019-06-15T01:39:39.055Z,23.00
2019-06-15T01:42:07.890Z,22.90
2019-06-15T01:44:36.709Z,22.90
2019-06-15T01:47:05.771Z,23.00
2019-06-15T01:49:34.536Z,23.00
2019-06-15T01:52:03.369Z,23.00
2019-06-15T01:54:32.347Z,22.90
2019-06-15T01:57:01.397Z,22.90
2019-06-15T01:59:30.295Z,22.90
2019-06-15T02:01:59.251Z,22.90
2019-06-15T02:04:28.188Z,22.90
2019-06-15T02:06:57.003Z,23.00
2019-06-15T02:09:25.857Z,23.00
2019-06-15T02:11:54.684Z,23.00
2019-06-15T02:14:23.685Z,23.00
2019-06-15T02:16:52.411Z,23.00
2019-06-15T02:19:21.515Z,23.00
2019-06-15T02:21:51.207Z,23.10
2019-06-15T02:24:20.213Z,23.10
2019-06-15T02:26:48.995Z,23.10
2019-06-15T02:29:17.791Z,23.10
2019-06-15T02:31:46.967Z,23.00
2019-06-15T02:34:16.544Z,23.00
2019-06-15T02:36:45.576Z,23.10
2019-06-15T02:39:14.412Z,23.10
2019-06-15T02:41:43.374Z,23.00
2019-06-15T02:44:12.389Z,23.10
2019-06-15T02:46:41.403Z,23.10
2019-06-15T02:49:10.568Z,23.10
2019-06-15T02:51:39.809Z,23.10
2019-06-15T02:54:09.020Z,23.00
2019-06-15T02:56:37.829Z,23.00
2019-06-15T02:59:06.790Z,23.00
2019-06-15T03:01:35.626Z,23.00
2019-06-15T03:04:04.510Z,23.00
2019-06-15T03:06:33.777Z,23.00
2019-06-15T03:09:03.398Z,23.00
2019-06-15T03:11:32.620Z,23.00
2019-06-15T03:14:03.018Z,23.00
2019-06-15T03:16:31.752Z,23.10
2019-06-15T03:19:00.483Z,23.10
2019-06-15T03:21:29.261Z,23.00
2019-06-15T03:23:58.079Z,23.00
2019-06-15T03:26:26.811Z,22.90
2019-06-15T03:28:55.555Z,23.00
2019-06-15T03:31:24.289Z,22.90
2019-06-15T03:33:53.135Z,22.80
2019-06-15T03:36:22.160Z,22.70
2019-06-15T03:38:51.182Z,22.60
2019-06-15T03:41:19.980Z,22.50
2019-06-15T03:43:48.771Z,22.60
2019-06-15T03:46:17.620Z,22.70
2019-06-15T03:48:46.424Z,22.70
2019-06-15T03:51:15.204Z,22.90
2019-06-15T03:53:44.023Z,23.00
2019-06-15T03:56:21.759Z,23.10
2019-06-15T03:58:44.050Z,23.30
2019-06-15T04:01:22.280Z,23.30
2019-06-15T04:03:51.238Z,23.40
2019-06-15T04:06:20.143Z,23.50
2019-06-15T04:08:49.017Z,23.50
2019-06-15T04:11:17.856Z,23.50
2019-06-15T04:13:46.883Z,23.50
2019-06-15T04:16:15.930Z,23.60
2019-06-15T04:18:44.658Z,23.60
2019-06-15T04:21:13.434Z,23.60
2019-06-15T04:23:42.525Z,23.70
2019-06-15T04:26:11.292Z,23.80
2019-06-15T04:28:40.046Z,23.90
2019-06-15T04:31:09.082Z,23.90
2019-06-15T04:33:38.135Z,24.00
2019-06-15T04:36:06.893Z,24.00
2019-06-15T04:38:35.659Z,24.10
2019-06-15T04:41:04.560Z,24.10
2019-06-15T04:43:33.637Z,24.10
2019-06-15T04:46:04.058Z,24.30
2019-06-15T04:48:32.793Z,24.30
2019-06-15T04:51:01.846Z,24.30
2019-06-15T04:53:31.473Z,24.30
2019-06-15T04:56:00.304Z,24.40
2019-06-15T04:58:29.164Z,24.50
2019-06-15T05:00:58.460Z,24.60
2019-06-15T05:03:27.240Z,24.80
2019-06-15T05:05:56.089Z,24.90
2019-06-15T05:08:24.925Z,25.00
2019-06-15T05:10:59.454Z,25.20
2019-06-15T05:13:24.419Z,25.30
2019-06-15T05:15:53.771Z,25.50
2019-06-15T05:18:22.548Z,25.60
2019-06-15T05:20:51.388Z,25.60
2019-06-15T05:23:20.377Z,25.70
2019-06-15T05:25:49.248Z,25.80
2019-06-15T05:28:18.068Z,26.00
2019-06-15T05:30:47.077Z,26.20
2019-06-15T05:33:16.356Z,26.50
2019-06-15T05:35:45.105Z,26.60
2019-06-15T05:38:13.834Z,26.40
2019-06-15T05:40:42.581Z,26.40
2019-06-15T05:43:11.436Z,26.30
2019-06-15T05:45:40.300Z,26.20
2019-06-15T05:48:09.173Z,26.20
2019-06-15T05:50:38.534Z,26.20
2019-06-15T05:53:07.836Z,26.20
2019-06-15T05:55:36.589Z,26.50
2019-06-15T05:58:05.928Z,26.70
2019-06-15T06:00:39.294Z,26.80
2019-06-15T06:03:08.140Z,27.00
2019-06-15T06:05:37.201Z,27.10
2019-06-15T06:08:06.288Z,27.10
2019-06-15T06:10:35.021Z,27.00
2019-06-15T06:13:04.158Z,27.10
2019-06-15T06:15:33.058Z,27.20
2019-06-15T06:18:02.093Z,27.20
2019-06-15T06:20:31.147Z,27.50
2019-06-15T06:23:00.000Z,27.60
2019-06-15T06:25:28.835Z,27.60
2019-06-15T06:27:57.704Z,27.60
2019-06-15T06:30:29.945Z,27.70
2019-06-15T06:32:57.105Z,27.60
2019-06-15T06:35:26.051Z,27.50
2019-06-15T06:37:54.955Z,27.30
2019-06-15T06:40:23.900Z,27.30
2019-06-15T06:42:52.868Z,27.50
2019-06-15T06:45:22.162Z,27.60
2019-06-15T06:47:51.289Z,27.80
2019-06-15T06:50:21.164Z,27.90
2019-06-15T06:52:50.015Z,27.90
2019-06-15T06:55:21.650Z,27.90
2019-06-15T06:57:54.842Z,27.90
2019-06-15T07:00:22.340Z,27.80
2019-06-15T07:02:51.472Z,28.00
2019-06-15T07:05:20.738Z,28.20
2019-06-15T07:07:50.297Z,28.40
2019-06-15T07:10:19.216Z,28.60
2019-06-15T07:12:48.139Z,29.00
2019-06-15T07:15:16.975Z,29.40
2019-06-15T07:17:45.726Z,29.90
2019-06-15T07:20:14.847Z,30.40
2019-06-15T07:22:43.603Z,31.00
2019-06-15T07:25:12.737Z,31.20
2019-06-15T07:27:42.293Z,31.30
2019-06-15T07:30:13.563Z,31.50
2019-06-15T07:32:42.707Z,31.40
2019-06-15T07:35:11.713Z,31.40
2019-06-15T07:37:40.488Z,31.40
2019-06-15T07:40:09.793Z,31.80
2019-06-15T07:42:39.669Z,32.30
2019-06-15T07:45:09.289Z,32.80
2019-06-15T07:47:38.186Z,32.70
2019-06-15T07:50:07.089Z,32.60
2019-06-15T07:52:35.924Z,32.70
2019-06-15T07:55:05.657Z,32.50
2019-06-15T07:57:34.521Z,32.00
2019-06-15T08:00:03.482Z,31.70
2019-06-15T08:02:37.057Z,31.20
2019-06-15T08:05:06.623Z,30.90
2019-06-15T08:07:35.460Z,30.40
2019-06-15T08:10:04.970Z,30.00
2019-06-15T08:12:34.535Z,29.70
2019-06-15T08:15:03.608Z,29.30
2019-06-15T08:17:32.688Z,29.70
2019-06-15T08:20:01.617Z,30.60
2019-06-15T08:22:30.525Z,31.20
2019-06-15T08:25:02.997Z,31.70
2019-06-15T08:27:31.804Z,32.40
2019-06-15T08:30:00.680Z,33.40
2019-06-15T08:32:29.796Z,34.00
2019-06-15T08:34:58.567Z,34.20
2019-06-15T08:37:27.357Z,34.60
2019-06-15T08:39:56.346Z,34.20
2019-06-15T08:42:25.207Z,34.40
2019-06-15T08:44:53.974Z,34.70
2019-06-15T08:47:22.744Z,34.80
2019-06-15T08:49:51.679Z,35.20
2019-06-15T08:52:20.550Z,35.40
2019-06-15T08:54:52.547Z,35.30
2019-06-15T08:57:23.799Z,36.20
2019-06-15T09:00:00.587Z,36.50
2019-06-15T09:02:29.599Z,36.30
2019-06-15T09:05:13.266Z,36.00
2019-06-15T09:07:48.479Z,35.90
2019-06-15T09:10:17.667Z,36.40
2019-06-15T09:12:47.260Z,36.20
2019-06-15T09:15:23.608Z,35.80
2019-06-15T09:17:53.075Z,35.80
2019-06-15T09:20:22.041Z,35.90
2019-06-15T09:22:50.935Z,35.80
2019-06-15T09:25:19.766Z,36.10
2019-06-15T09:27:48.595Z,36.10
2019-06-15T09:30:17.445Z,35.70
2019-06-15T09:32:47.815Z,35.70
2019-06-15T09:35:16.643Z,36.00
2019-06-15T09:37:46.499Z,36.50
2019-06-15T09:40:15.778Z,36.90
2019-06-15T09:42:44.625Z,37.10
2019-06-15T09:45:13.539Z,37.40
2019-06-15T09:47:42.437Z,38.30
2019-06-15T09:50:14.907Z,38.20
2019-06-15T09:52:43.748Z,38.30
2019-06-15T09:55:12.959Z,38.20
2019-06-15T09:57:45.023Z,38.30
2019-06-15T10:00:14.197Z,38.30
2019-06-15T10:02:43.020Z,38.30
2019-06-15T10:05:12.348Z,38.20
2019-06-15T10:07:41.505Z,37.90
2019-06-15T10:10:11.768Z,37.50
2019-06-15T10:12:40.659Z,37.40
2019-06-15T10:15:11.790Z,36.80
2019-06-15T10:17:40.652Z,36.60
2019-06-15T10:20:10.186Z,36.60
2019-06-15T10:22:38.923Z,36.60
2019-06-15T10:25:08.560Z,36.50
2019-06-15T10:27:37.375Z,36.10
2019-06-15T10:30:06.364Z,35.80
2019-06-15T10:32:35.165Z,35.50
2019-06-15T10:35:04.533Z,35.50
2019-06-15T10:37:33.370Z,35.90
2019-06-15T10:40:02.162Z,36.30
2019-06-15T10:42:31.079Z,36.00
2019-06-15T10:44:59.865Z,35.40
2019-06-15T10:47:28.619Z,35.30
2019-06-15T10:49:57.475Z,35.10
2019-06-15T10:52:26.328Z,35.30
2019-06-15T10:54:55.127Z,35.50
2019-06-15T10:57:24.150Z,35.70
2019-06-15T10:59:57.209Z,36.30
2019-06-15T11:02:23.489Z,36.50
2019-06-15T11:04:52.525Z,36.30
2019-06-15T11:07:21.402Z,36.30
2019-06-15T11:09:50.299Z,35.70
2019-06-15T11:12:19.554Z,35.60
2019-06-15T11:14:48.388Z,35.50
2019-06-15T11:17:17.391Z,35.10
2019-06-15T11:19:46.556Z,35.00
2019-06-15T11:22:15.406Z,35.60
2019-06-15T11:24:44.509Z,36.10
2019-06-15T11:27:13.487Z,36.40
2019-06-15T11:29:42.244Z,36.70
2019-06-15T11:32:11.261Z,36.90
2019-06-15T11:34:40.124Z,37.00
2019-06-15T11:37:11.609Z,37.00
2019-06-15T11:39:39.569Z,37.10
2019-06-15T11:42:08.307Z,36.80
2019-06-15T11:44:37.362Z,36.70
2019-06-15T11:47:06.416Z,36.30
2019-06-15T11:49:35.237Z,36.10
2019-06-15T11:52:04.106Z,35.60
2019-06-15T11:54:32.936Z,35.20
2019-06-15T11:57:01.737Z,34.90
2019-06-15T11:59:30.859Z,34.40
2019-06-15T12:01:59.688Z,34.20
2019-06-15T12:04:28.692Z,34.10
2019-06-15T12:06:58.056Z,34.00
2019-06-15T12:09:27.108Z,33.80
2019-06-15T12:11:55.899Z,33.50
2019-06-15T12:14:24.972Z,33.30
2019-06-15T12:16:53.847Z,33.30
2019-06-15T12:19:22.637Z,33.40
2019-06-15T12:21:51.772Z,33.60
2019-06-15T12:24:21.039Z,33.60
2019-06-15T12:26:50.385Z,33.80
2019-06-15T12:29:19.635Z,33.80
2019-06-15T12:31:48.593Z,33.90
2019-06-15T12:34:20.904Z,33.90
2019-06-15T12:36:48.129Z,33.90
2019-06-15T12:39:17.042Z,34.00
2019-06-15T12:41:45.890Z,34.00
2019-06-15T12:44:15.238Z,34.00
2019-06-15T12:46:44.001Z,34.10
2019-06-15T12:49:12.782Z,34.10
2019-06-15T12:51:41.894Z,34.10
2019-06-15T12:54:10.982Z,34.10
2019-06-15T12:56:39.824Z,33.90
2019-06-15T12:59:08.696Z,33.50
2019-06-15T13:01:38.102Z,33.30
2019-06-15T13:04:06.945Z,33.20
2019-06-15T13:06:35.956Z,33.00
2019-06-15T13:09:05.788Z,32.80
2019-06-15T13:11:34.888Z,32.70
2019-06-15T13:14:04.106Z,32.70
2019-06-15T13:16:39.523Z,32.90
2019-06-15T13:19:03.745Z,33.00
2019-06-15T13:21:32.800Z,32.90
2019-06-15T13:24:01.553Z,32.80
2019-06-15T13:26:30.422Z,32.80
2019-06-15T13:28:59.484Z,32.50
2019-06-15T13:31:28.320Z,32.50
2019-06-15T13:33:57.042Z,32.40
2019-06-15T13:36:25.851Z,32.40
2019-06-15T13:38:54.656Z,32.40
2019-06-15T13:41:24.611Z,32.70
2019-06-15T13:43:53.495Z,32.70
2019-06-15T13:46:22.349Z,32.60
2019-06-15T13:48:51.488Z,32.60
2019-06-15T13:51:20.289Z,32.40
2019-06-15T13:53:49.161Z,32.40
2019-06-15T13:56:18.207Z,32.60
2019-06-15T13:58:46.978Z,32.60
2019-06-15T14:01:16.088Z,32.70
2019-06-15T14:03:44.858Z,32.80
2019-06-15T14:06:15.021Z,32.80
2019-06-15T14:08:44.373Z,32.90
2019-06-15T14:11:13.201Z,32.80
2019-06-15T14:13:42.283Z,32.80
2019-06-15T14:16:11.052Z,32.70
2019-06-15T14:18:40.151Z,32.70
2019-06-15T14:21:09.459Z,32.70
2019-06-15T14:23:38.656Z,32.60
2019-06-15T14:26:07.499Z,32.60
2019-06-15T14:28:36.528Z,32.60
2019-06-15T14:31:05.398Z,32.50
2019-06-15T14:33:34.561Z,32.60
2019-06-15T14:36:03.478Z,32.50
2019-06-15T14:38:32.331Z,32.40
2019-06-15T14:41:01.101Z,32.20
2019-06-15T14:43:29.939Z,32.10
2019-06-15T14:45:59.931Z,32.10
2019-06-15T14:48:28.847Z,32.10
2019-06-15T14:50:57.918Z,32.00
2019-06-15T14:53:27.001Z,31.80
2019-06-15T14:55:56.473Z,31.80
2019-06-15T14:58:26.301Z,31.60
2019-06-15T15:00:57.149Z,31.50
2019-06-15T15:03:26.394Z,31.30
2019-06-15T15:05:55.192Z,31.20
2019-06-15T15:08:26.208Z,31.10
2019-06-15T15:10:56.319Z,30.90
2019-06-15T15:13:26.438Z,30.90
2019-06-15T15:15:56.976Z,30.80
2019-06-15T15:18:26.983Z,30.70
2019-06-15T15:20:56.455Z,30.60
2019-06-15T15:23:25.459Z,30.50
2019-06-15T15:25:54.495Z,30.50
2019-06-15T15:28:23.223Z,30.30
2019-06-15T15:30:51.968Z,30.20
2019-06-15T15:33:21.052Z,30.00
2019-06-15T15:35:50.379Z,29.90
2019-06-15T15:38:19.226Z,29.80
2019-06-15T15:40:47.991Z,29.80
2019-06-15T15:43:16.956Z,29.80
2019-06-15T15:45:46.042Z,29.70
2019-06-15T15:48:18.531Z,29.50
2019-06-15T15:50:46.989Z,29.50
2019-06-15T15:53:15.866Z,29.30
2019-06-15T15:55:46.789Z,29.00
2019-06-15T15:58:16.687Z,29.00
2019-06-15T16:00:46.837Z,28.90
2019-06-15T16:03:16.058Z,28.80
2019-06-15T16:05:47.223Z,28.70
2019-06-15T16:08:16.409Z,28.60
2019-06-15T16:10:46.144Z,28.50
2019-06-15T16:13:16.613Z,28.40
2019-06-15T16:15:46.202Z,28.30
2019-06-15T16:18:17.353Z,28.20
2019-06-15T16:20:47.097Z,28.10
2019-06-15T16:23:16.218Z,28.10
2019-06-15T16:25:46.201Z,28.10
2019-06-15T16:28:15.397Z,27.90
2019-06-15T16:31:01.703Z,27.90
2019-06-15T16:33:16.164Z,27.90
2019-06-15T16:35:46.642Z,28.00
2019-06-15T16:38:18.874Z,28.00
2019-06-15T16:40:46.954Z,27.90
2019-06-15T16:43:17.525Z,28.00
2019-06-15T16:45:46.762Z,28.00
2019-06-15T16:48:16.741Z,28.00
2019-06-15T16:50:46.983Z,27.90
2019-06-15T16:53:16.809Z,27.90
2019-06-15T16:55:46.804Z,27.80
2019-06-15T16:58:16.292Z,27.80
2019-06-15T17:00:47.417Z,27.80
2019-06-15T17:03:22.103Z,27.90
2019-06-15T17:05:46.711Z,27.80
2019-06-15T17:08:17.245Z,27.70
2019-06-15T17:10:46.271Z,27.60
2019-06-15T17:13:16.083Z,27.60
2019-06-15T17:15:46.819Z,27.50
2019-06-15T17:18:15.643Z,27.50
2019-06-15T17:20:49.251Z,27.50
2019-06-15T17:23:18.444Z,27.40
2019-06-15T17:25:47.306Z,27.40
2019-06-15T17:28:16.122Z,27.30
2019-06-15T17:30:45.425Z,27.30
2019-06-15T17:33:16.647Z,27.30
2019-06-15T17:35:56.146Z,27.20
2019-06-15T17:38:16.735Z,27.20
2019-06-15T17:40:46.185Z,27.20
2019-06-15T17:43:16.159Z,27.20
2019-06-15T17:45:46.905Z,27.10
2019-06-15T17:48:17.471Z,27.10
2019-06-15T17:50:47.784Z,27.00
2019-06-15T17:53:17.078Z,26.90
2019-06-15T17:55:46.657Z,26.90
2019-06-15T17:58:16.940Z,26.90
2019-06-15T18:00:47.134Z,26.80
2019-06-15T18:03:17.160Z,26.70
2019-06-15T18:05:48.111Z,26.70
2019-06-15T18:08:17.109Z,26.70
2019-06-15T18:10:47.636Z,26.60
2019-06-15T18:13:17.352Z,26.60
2019-06-15T18:15:47.521Z,26.60
2019-06-15T18:18:17.426Z,26.50
2019-06-15T18:20:46.492Z,26.50
2019-06-15T18:23:17.351Z,26.50
2019-06-15T18:25:46.920Z,26.50
2019-06-15T18:28:17.536Z,26.50
2019-06-15T18:30:46.951Z,26.40
2019-06-15T18:33:16.251Z,26.40
2019-06-15T18:35:47.397Z,26.40
2019-06-15T18:38:16.216Z,26.40
2019-06-15T18:40:45.069Z,26.30
2019-06-15T18:43:16.458Z,26.30
2019-06-15T18:45:46.925Z,26.10
2019-06-15T18:48:16.802Z,26.00
2019-06-15T18:50:45.996Z,25.90
2019-06-15T18:53:14.751Z,25.90
2019-06-15T18:55:43.611Z,25.80
2019-06-15T18:58:12.327Z,25.80
2019-06-15T19:00:41.300Z,25.80
2019-06-15T19:03:10.051Z,25.80
2019-06-15T19:05:39.313Z,25.80
2019-06-15T19:08:08.094Z,25.80
2019-06-15T19:10:37.352Z,25.70
2019-06-15T19:13:07.568Z,25.70
2019-06-15T19:15:37.212Z,25.60
2019-06-15T19:18:07.269Z,25.40
2019-06-15T19:20:37.387Z,25.40
2019-06-15T19:23:07.125Z,25.30
2019-06-15T19:25:36.595Z,25.10
2019-06-15T19:28:05.701Z,25.10
2019-06-15T19:30:37.127Z,25.00
2019-06-15T19:33:05.259Z,24.90
2019-06-15T19:35:36.328Z,24.90
2019-06-15T19:38:06.314Z,24.80
2019-06-15T19:40:37.835Z,24.70
2019-06-15T19:43:06.582Z,24.60
2019-06-15T19:45:36.994Z,24.60
2019-06-15T19:48:06.760Z,24.60
2019-06-15T19:50:36.440Z,24.50
2019-06-15T19:53:07.016Z,24.40
2019-06-15T19:55:36.424Z,24.30
2019-06-15T19:58:07.161Z,24.20
2019-06-15T20:00:36.598Z,24.10
2019-06-15T20:03:06.963Z,24.10
2019-06-15T20:05:36.993Z,24.00
2019-06-15T20:08:07.079Z,24.00
2019-06-15T20:10:37.033Z,23.90
2019-06-15T20:13:07.197Z,23.90
2019-06-15T20:15:37.844Z,23.80
2019-06-15T20:18:07.255Z,23.70
2019-06-15T20:20:37.188Z,23.70
2019-06-15T20:23:07.461Z,23.70
2019-06-15T20:25:36.973Z,23.60
2019-06-15T20:28:07.201Z,23.60
2019-06-15T20:30:37.044Z,23.60
2019-06-15T20:33:07.777Z,23.50
2019-06-15T20:35:36.536Z,23.50
2019-06-15T20:38:05.388Z,23.50
2019-06-15T20:40:36.583Z,23.50
2019-06-15T20:43:07.398Z,23.50
2019-06-15T20:45:37.113Z,23.40
2019-06-15T20:48:06.952Z,23.40
2019-06-15T20:50:36.325Z,23.40
2019-06-15T20:53:06.042Z,23.40
2019-06-15T20:55:37.166Z,23.40
2019-06-15T20:58:06.491Z,23.30
2019-06-15T21:00:36.723Z,23.30
2019-06-15T21:03:06.761Z,23.30
2019-06-15T21:05:41.589Z,23.20
2019-06-15T21:08:06.999Z,23.20
2019-06-15T21:10:37.261Z,23.20
2019-06-15T21:13:06.323Z,23.10
2019-06-15T21:15:38.549Z,23.00
2019-06-15T21:18:07.349Z,23.00
2019-06-15T21:20:36.535Z,23.00
2019-06-15T21:23:06.602Z,22.90
2019-06-15T21:25:35.921Z,22.80
2019-06-15T21:28:06.690Z,22.80
2019-06-15T21:30:36.859Z,22.80
2019-06-15T21:33:07.036Z,22.70
2019-06-15T21:35:48.607Z,22.70
2019-06-15T21:38:06.836Z,22.70
2019-06-15T21:40:36.838Z,22.70
2019-06-15T21:43:07.055Z,22.60
2019-06-15T21:45:36.862Z,22.60
2019-06-15T21:48:06.761Z,22.60
2019-06-15T21:50:36.316Z,22.60
2019-06-15T21:53:06.902Z,22.60
2019-06-15T21:55:36.370Z,22.50
2019-06-15T21:58:12.912Z,22.50
2019-06-15T22:01:06.291Z,22.50
2019-06-15T22:03:36.832Z,22.40
2019-06-15T22:06:06.495Z,22.40
2019-06-15T22:08:37.028Z,22.30
2019-06-15T22:11:06.667Z,22.30
2019-06-15T22:13:37.344Z,22.40
2019-06-15T22:16:06.912Z,22.30
2019-06-15T22:18:36.424Z,22.30
2019-06-15T22:21:06.537Z,22.30
2019-06-15T22:23:36.423Z,22.30
2019-06-15T22:26:06.464Z,22.20
2019-06-15T22:28:36.284Z,22.10
2019-06-15T22:31:06.625Z,22.10
2019-06-15T22:33:36.328Z,22.10
2019-06-15T22:36:18.565Z,22.10
2019-06-15T22:38:36.830Z,22.00
2019-06-15T22:41:06.179Z,22.00
2019-06-15T22:43:36.362Z,22.00
2019-06-15T22:46:07.421Z,21.90
2019-06-15T22:48:36.276Z,21.90
2019-06-15T22:51:06.198Z,21.90
2019-06-15T22:53:36.468Z,21.80
2019-06-15T22:56:06.611Z,21.80
2019-06-15T22:58:35.617Z,21.80
2019-06-15T23:04:46.969Z,21.70
2019-06-15T23:07:16.098Z,21.60
2019-06-15T23:09:46.782Z,21.60
2019-06-15T23:12:15.912Z,21.60
2019-06-15T23:14:46.635Z,21.60
2019-06-15T23:17:15.730Z,21.50
2019-06-15T23:19:46.099Z,21.50
2019-06-15T23:22:16.983Z,21.50
2019-06-15T23:24:46.833Z,21.40
2019-06-15T23:27:16.542Z,21.30
2019-06-15T23:29:46.303Z,21.30
2019-06-15T23:32:16.941Z,21.30
2019-06-15T23:34:45.830Z,21.30
2019-06-15T23:37:16.204Z,21.30
2019-06-15T23:40:07.209Z,21.30
2019-06-15T23:42:36.405Z,21.20
2019-06-15T23:45:06.859Z,21.20
2019-06-15T23:47:36.912Z,21.10
2019-06-15T23:50:06.962Z,21.10
2019-06-15T23:52:36.265Z,21.00
2019-06-15T23:55:05.332Z,21.00
2019-06-15T23:57:36.779Z,21.00
